sensor_id;sensor_type;location;lat;lon;timestamp;pressure;altitude;pressure_sealevel;temperature;humidity
39613;BME280;25303;48.896;13.342;2023-02-28T00:00:21;93318.63;;;-3.24;57.78
39613;BME280;25303;48.896;13.342;2023-02-28T00:03:03;93313.44;;;-3.42;59.00
39613;BME280;25303;48.896;13.342;2023-02-28T00:05:46;93316.97;;;-3.25;58.07
39613;BME280;25303;48.896;13.342;2023-02-28T00:08:29;93310.00;;;-3.18;57.85
39613;BME280;25303;48.896;13.342;2023-02-28T00:11:13;93309.66;;;-3.52;58.51
39613;BME280;25303;48.896;13.342;2023-02-28T00:13:58;93299.84;;;-3.17;58.37
39613;BME280;25303;48.896;13.342;2023-02-28T00:16:40;93301.78;;;-3.24;57.99
39613;BME280;25303;48.896;13.342;2023-02-28T00:19:23;93302.63;;;-3.23;57.84
39613;BME280;25303;48.896;13.342;2023-02-28T00:22:06;93288.44;;;-3.26;57.88
39613;BME280;25303;48.896;13.342;2023-02-28T00:24:49;93288.28;;;-3.42;58.49
39613;BME280;25303;48.896;13.342;2023-02-28T00:27:31;93286.19;;;-3.32;58.04
39613;BME280;25303;48.896;13.342;2023-02-28T00:30:16;93287.53;;;-3.23;58.13
39613;BME280;25303;48.896;13.342;2023-02-28T00:32:59;93284.63;;;-3.34;57.86
39613;BME280;25303;48.896;13.342;2023-02-28T00:35:41;93288.75;;;-3.33;57.87
39613;BME280;25303;48.896;13.342;2023-02-28T00:38:24;93281.19;;;-3.54;58.70
39613;BME280;25303;48.896;13.342;2023-02-28T00:41:07;93284.03;;;-3.41;58.04
39613;BME280;25303;48.896;13.342;2023-02-28T00:43:50;93274.94;;;-3.44;58.02
39613;BME280;25303;48.896;13.342;2023-02-28T00:46:34;93282.22;;;-3.58;58.53
39613;BME280;25303;48.896;13.342;2023-02-28T00:49:17;93274.84;;;-3.42;57.40
39613;BME280;25303;48.896;13.342;2023-02-28T00:52:00;93268.19;;;-3.43;57.94
39613;BME280;25303;48.896;13.342;2023-02-28T00:54:42;93267.38;;;-3.23;57.20
39613;BME280;25303;48.896;13.342;2023-02-28T00:57:25;93265.09;;;-3.29;57.22
39613;BME280;25303;48.896;13.342;2023-02-28T01:00:08;93266.75;;;-3.28;56.83
39613;BME280;25303;48.896;13.342;2023-02-28T01:02:52;93257.63;;;-3.31;56.61
39613;BME280;25303;48.896;13.342;2023-02-28T01:05:36;93248.84;;;-3.22;56.64
39613;BME280;25303;48.896;13.342;2023-02-28T01:08:19;93258.44;;;-3.30;56.52
39613;BME280;25303;48.896;13.342;2023-02-28T01:11:06;93242.09;;;-3.61;57.57
39613;BME280;25303;48.896;13.342;2023-02-28T01:13:49;93246.28;;;-3.41;56.90
39613;BME280;25303;48.896;13.342;2023-02-28T01:16:32;93250.53;;;-3.42;56.88
39613;BME280;25303;48.896;13.342;2023-02-28T01:19:18;93247.25;;;-3.23;56.20
39613;BME280;25303;48.896;13.342;2023-02-28T01:22:01;93248.34;;;-3.72;57.33
39613;BME280;25303;48.896;13.342;2023-02-28T01:24:44;93238.63;;;-3.38;56.62
39613;BME280;25303;48.896;13.342;2023-02-28T01:27:28;93251.88;;;-3.34;56.59
39613;BME280;25303;48.896;13.342;2023-02-28T01:30:12;93244.53;;;-3.60;56.77
39613;BME280;25303;48.896;13.342;2023-02-28T01:32:55;93245.09;;;-3.53;56.50
39613;BME280;25303;48.896;13.342;2023-02-28T01:35:40;93244.09;;;-3.49;56.73
39613;BME280;25303;48.896;13.342;2023-02-28T01:38:23;93232.44;;;-3.31;56.45
39613;BME280;25303;48.896;13.342;2023-02-28T01:41:08;93238.25;;;-3.49;56.50
39613;BME280;25303;48.896;13.342;2023-02-28T01:44:00;93241.41;;;-3.65;56.66
39613;BME280;25303;48.896;13.342;2023-02-28T01:46:46;93232.06;;;-3.42;56.36
39613;BME280;25303;48.896;13.342;2023-02-28T01:49:28;93225.09;;;-3.77;57.00
39613;BME280;25303;48.896;13.342;2023-02-28T01:52:13;93234.84;;;-3.48;56.61
39613;BME280;25303;48.896;13.342;2023-02-28T01:55:00;93227.47;;;-3.32;56.01
39613;BME280;25303;48.896;13.342;2023-02-28T01:57:45;93230.66;;;-3.29;55.76
39613;BME280;25303;48.896;13.342;2023-02-28T02:00:29;93227.59;;;-3.36;56.08
39613;BME280;25303;48.896;13.342;2023-02-28T02:03:13;93225.44;;;-3.64;55.58
39613;BME280;25303;48.896;13.342;2023-02-28T02:05:57;93230.50;;;-3.66;56.28
39613;BME280;25303;48.896;13.342;2023-02-28T02:08:41;93228.31;;;-3.53;56.33
39613;BME280;25303;48.896;13.342;2023-02-28T02:11:24;93232.63;;;-3.36;55.94
39613;BME280;25303;48.896;13.342;2023-02-28T02:14:24;93221.78;;;-3.38;56.11
39613;BME280;25303;48.896;13.342;2023-02-28T02:17:14;93223.84;;;-3.46;55.76
39613;BME280;25303;48.896;13.342;2023-02-28T02:20:06;93223.59;;;-3.60;56.29
39613;BME280;25303;48.896;13.342;2023-02-28T02:26:00;93234.56;;;-3.22;55.57
39613;BME280;25303;48.896;13.342;2023-02-28T02:28:54;93228.66;;;-3.21;55.48
39613;BME280;25303;48.896;13.342;2023-02-28T02:31:52;93230.13;;;-3.56;55.78
39613;BME280;25303;48.896;13.342;2023-02-28T02:34:42;93225.16;;;-3.58;56.19
39613;BME280;25303;48.896;13.342;2023-02-28T02:37:27;93227.31;;;-3.48;56.48
39613;BME280;25303;48.896;13.342;2023-02-28T02:40:14;93221.78;;;-3.38;56.17
39613;BME280;25303;48.896;13.342;2023-02-28T02:42:59;93226.66;;;-3.33;55.83
39613;BME280;25303;48.896;13.342;2023-02-28T02:45:46;93227.16;;;-3.45;56.21
39613;BME280;25303;48.896;13.342;2023-02-28T02:48:30;93225.28;;;-3.61;56.63
39613;BME280;25303;48.896;13.342;2023-02-28T02:51:16;93231.50;;;-3.28;55.87
39613;BME280;25303;48.896;13.342;2023-02-28T02:54:02;93232.94;;;-3.43;56.22
39613;BME280;25303;48.896;13.342;2023-02-28T02:56:47;93231.81;;;-3.36;55.91
39613;BME280;25303;48.896;13.342;2023-02-28T02:59:30;93230.63;;;-3.69;56.75
39613;BME280;25303;48.896;13.342;2023-02-28T03:02:14;93232.19;;;-3.45;56.15
39613;BME280;25303;48.896;13.342;2023-02-28T03:04:58;93232.03;;;-3.41;56.35
39613;BME280;25303;48.896;13.342;2023-02-28T03:07:44;93235.69;;;-3.29;55.47
39613;BME280;25303;48.896;13.342;2023-02-28T03:10:28;93229.63;;;-3.64;56.09
39613;BME280;25303;48.896;13.342;2023-02-28T03:13:16;93234.66;;;-3.64;56.73
39613;BME280;25303;48.896;13.342;2023-02-28T03:16:07;93232.03;;;-3.61;56.73
39613;BME280;25303;48.896;13.342;2023-02-28T03:19:01;93235.28;;;-3.80;56.66
39613;BME280;25303;48.896;13.342;2023-02-28T03:21:49;93237.69;;;-3.56;55.94
39613;BME280;25303;48.896;13.342;2023-02-28T03:24:40;93228.81;;;-3.65;56.64
39613;BME280;25303;48.896;13.342;2023-02-28T03:27:26;93234.09;;;-3.51;56.07
39613;BME280;25303;48.896;13.342;2023-02-28T03:30:10;93230.88;;;-3.54;55.99
39613;BME280;25303;48.896;13.342;2023-02-28T03:32:57;93230.63;;;-3.69;57.04
39613;BME280;25303;48.896;13.342;2023-02-28T03:35:41;93224.00;;;-3.92;58.03
39613;BME280;25303;48.896;13.342;2023-02-28T03:38:27;93231.81;;;-3.57;57.62
39613;BME280;25303;48.896;13.342;2023-02-28T03:41:13;93231.19;;;-3.41;56.88
39613;BME280;25303;48.896;13.342;2023-02-28T03:43:56;93225.84;;;-3.54;57.13
39613;BME280;25303;48.896;13.342;2023-02-28T03:46:42;93227.03;;;-3.63;57.56
39613;BME280;25303;48.896;13.342;2023-02-28T03:49:29;93230.22;;;-3.39;56.77
39613;BME280;25303;48.896;13.342;2023-02-28T03:52:14;93225.13;;;-3.78;57.69
39613;BME280;25303;48.896;13.342;2023-02-28T03:54:59;93217.28;;;-3.71;57.64
39613;BME280;25303;48.896;13.342;2023-02-28T03:57:47;93233.41;;;-3.75;56.87
39613;BME280;25303;48.896;13.342;2023-02-28T04:00:34;93230.88;;;-3.75;56.96
39613;BME280;25303;48.896;13.342;2023-02-28T04:03:18;93231.34;;;-3.87;56.96
39613;BME280;25303;48.896;13.342;2023-02-28T04:06:00;93223.38;;;-3.76;56.47
39613;BME280;25303;48.896;13.342;2023-02-28T04:08:43;93217.44;;;-3.74;56.48
39613;BME280;25303;48.896;13.342;2023-02-28T04:11:27;93219.75;;;-3.69;55.95
39613;BME280;25303;48.896;13.342;2023-02-28T04:14:14;93230.16;;;-3.78;56.17
39613;BME280;25303;48.896;13.342;2023-02-28T04:16:56;93229.09;;;-3.52;55.94
39613;BME280;25303;48.896;13.342;2023-02-28T04:19:39;93227.88;;;-3.62;55.61
39613;BME280;25303;48.896;13.342;2023-02-28T04:22:22;93222.00;;;-4.04;56.42
39613;BME280;25303;48.896;13.342;2023-02-28T04:25:07;93217.88;;;-3.64;55.83
39613;BME280;25303;48.896;13.342;2023-02-28T04:27:50;93223.47;;;-3.57;55.55
39613;BME280;25303;48.896;13.342;2023-02-28T04:30:34;93219.06;;;-3.73;55.68
39613;BME280;25303;48.896;13.342;2023-02-28T04:33:16;93218.22;;;-3.73;55.69
39613;BME280;25303;48.896;13.342;2023-02-28T04:35:59;93220.69;;;-3.72;55.66
39613;BME280;25303;48.896;13.342;2023-02-28T04:38:44;93221.69;;;-3.55;55.38
39613;BME280;25303;48.896;13.342;2023-02-28T04:41:27;93223.47;;;-3.57;55.67
39613;BME280;25303;48.896;13.342;2023-02-28T04:44:12;93225.09;;;-3.56;55.53
39613;BME280;25303;48.896;13.342;2023-02-28T04:46:56;93225.78;;;-3.53;55.19
39613;BME280;25303;48.896;13.342;2023-02-28T04:49:39;93225.44;;;-3.64;55.30
39613;BME280;25303;48.896;13.342;2023-02-28T04:52:22;93225.72;;;-3.51;55.13
39613;BME280;25303;48.896;13.342;2023-02-28T04:55:05;93218.69;;;-3.63;55.56
39613;BME280;25303;48.896;13.342;2023-02-28T04:57:48;93225.03;;;-3.55;55.18
39613;BME280;25303;48.896;13.342;2023-02-28T05:00:30;93220.19;;;-3.59;55.10
39613;BME280;25303;48.896;13.342;2023-02-28T05:03:14;93219.69;;;-3.68;55.61
39613;BME280;25303;48.896;13.342;2023-02-28T05:05:57;93221.28;;;-3.65;55.61
39613;BME280;25303;48.896;13.342;2023-02-28T05:08:40;93218.00;;;-3.67;55.53
39613;BME280;25303;48.896;13.342;2023-02-28T05:11:24;93213.50;;;-3.81;56.21
39613;BME280;25303;48.896;13.342;2023-02-28T05:14:09;93222.00;;;-3.63;55.70
39613;BME280;25303;48.896;13.342;2023-02-28T05:16:52;93221.75;;;-3.98;56.30
39613;BME280;25303;48.896;13.342;2023-02-28T05:19:36;93217.25;;;-3.69;55.85
39613;BME280;25303;48.896;13.342;2023-02-28T05:22:19;93215.84;;;-3.76;56.03
39613;BME280;25303;48.896;13.342;2023-02-28T05:25:02;93220.25;;;-3.82;56.08
39613;BME280;25303;48.896;13.342;2023-02-28T05:27:44;93217.53;;;-3.98;56.56
39613;BME280;25303;48.896;13.342;2023-02-28T05:30:27;93227.16;;;-3.87;56.61
39613;BME280;25303;48.896;13.342;2023-02-28T05:33:11;93230.28;;;-4.02;56.43
39613;BME280;25303;48.896;13.342;2023-02-28T05:35:55;93238.03;;;-3.86;56.29
39613;BME280;25303;48.896;13.342;2023-02-28T05:38:37;93235.28;;;-3.80;56.55
39613;BME280;25303;48.896;13.342;2023-02-28T05:41:20;93236.38;;;-4.08;56.54
39613;BME280;25303;48.896;13.342;2023-02-28T05:44:03;93234.09;;;-3.71;56.15
39613;BME280;25303;48.896;13.342;2023-02-28T05:46:46;93233.16;;;-3.89;55.89
39613;BME280;25303;48.896;13.342;2023-02-28T05:49:29;93227.97;;;-3.86;56.12
39613;BME280;25303;48.896;13.342;2023-02-28T05:52:12;93236.34;;;-3.86;56.17
39613;BME280;25303;48.896;13.342;2023-02-28T05:54:55;93244.19;;;-3.93;56.48
39613;BME280;25303;48.896;13.342;2023-02-28T05:57:38;93236.84;;;-3.77;56.39
39613;BME280;25303;48.896;13.342;2023-02-28T06:00:21;93239.47;;;-4.01;56.63
39613;BME280;25303;48.896;13.342;2023-02-28T06:03:04;93252.19;;;-3.84;56.42
39613;BME280;25303;48.896;13.342;2023-02-28T06:05:47;93245.84;;;-3.92;56.42
39613;BME280;25303;48.896;13.342;2023-02-28T06:08:30;93246.78;;;-3.74;56.18
39613;BME280;25303;48.896;13.342;2023-02-28T06:11:13;93256.63;;;-3.68;56.09
39613;BME280;25303;48.896;13.342;2023-02-28T06:13:56;93250.63;;;-3.66;56.45
39613;BME280;25303;48.896;13.342;2023-02-28T06:16:40;93252.91;;;-3.59;56.30
39613;BME280;25303;48.896;13.342;2023-02-28T06:19:23;93254.78;;;-3.44;55.54
39613;BME280;25303;48.896;13.342;2023-02-28T06:22:06;93262.41;;;-3.45;55.49
39613;BME280;25303;48.896;13.342;2023-02-28T06:24:51;93263.22;;;-3.45;55.41
39613;BME280;25303;48.896;13.342;2023-02-28T06:27:34;93263.59;;;-3.33;55.29
39613;BME280;25303;48.896;13.342;2023-02-28T06:30:17;93277.28;;;-3.20;54.83
39613;BME280;25303;48.896;13.342;2023-02-28T06:33:00;93266.06;;;-3.32;55.33
39613;BME280;25303;48.896;13.342;2023-02-28T06:35:43;93265.94;;;-3.49;55.13
39613;BME280;25303;48.896;13.342;2023-02-28T06:38:26;93270.94;;;-3.29;55.03
39613;BME280;25303;48.896;13.342;2023-02-28T06:41:10;93273.34;;;-3.26;54.86
39613;BME280;25303;48.896;13.342;2023-02-28T06:43:53;93278.72;;;-2.94;54.66
39613;BME280;25303;48.896;13.342;2023-02-28T06:46:35;93282.53;;;-2.85;54.30
39613;BME280;25303;48.896;13.342;2023-02-28T06:49:19;93282.09;;;-2.74;54.26
39613;BME280;25303;48.896;13.342;2023-02-28T06:52:02;93289.22;;;-2.84;54.06
39613;BME280;25303;48.896;13.342;2023-02-28T06:54:44;93283.81;;;-2.55;54.02
39613;BME280;25303;48.896;13.342;2023-02-28T06:57:29;93284.13;;;-2.63;53.19
39613;BME280;25303;48.896;13.342;2023-02-28T07:00:13;93290.59;;;-2.38;53.80
39613;BME280;25303;48.896;13.342;2023-02-28T07:02:56;93284.09;;;-2.42;52.98
39613;BME280;25303;48.896;13.342;2023-02-28T07:05:39;93293.81;;;-2.35;53.50
39613;BME280;25303;48.896;13.342;2023-02-28T07:08:21;93292.50;;;-2.24;52.89
39613;BME280;25303;48.896;13.342;2023-02-28T07:11:04;93293.94;;;-2.00;52.89
39613;BME280;25303;48.896;13.342;2023-02-28T07:13:48;93294.25;;;-1.88;52.62
39613;BME280;25303;48.896;13.342;2023-02-28T07:16:32;93291.56;;;-1.85;52.34
39613;BME280;25303;48.896;13.342;2023-02-28T07:19:14;93290.03;;;-1.70;52.69
39613;BME280;25303;48.896;13.342;2023-02-28T07:21:57;93298.59;;;-1.55;52.14
39613;BME280;25303;48.896;13.342;2023-02-28T07:24:40;93296.31;;;-1.42;51.68
39613;BME280;25303;48.896;13.342;2023-02-28T07:27:23;93284.94;;;-1.51;50.44
39613;BME280;25303;48.896;13.342;2023-02-28T07:30:09;93300.44;;;-1.24;51.19
39613;BME280;25303;48.896;13.342;2023-02-28T07:32:51;93293.69;;;-1.23;50.64
39613;BME280;25303;48.896;13.342;2023-02-28T07:35:36;93300.97;;;-0.99;50.70
39613;BME280;25303;48.896;13.342;2023-02-28T07:38:18;93304.25;;;-0.81;49.95
39613;BME280;25303;48.896;13.342;2023-02-28T07:41:01;93308.03;;;-0.72;49.87
39613;BME280;25303;48.896;13.342;2023-02-28T07:43:45;93299.63;;;-1.07;48.86
39613;BME280;25303;48.896;13.342;2023-02-28T07:46:29;93298.69;;;-0.88;49.51
39613;BME280;25303;48.896;13.342;2023-02-28T07:49:17;93306.44;;;-0.91;49.56
39613;BME280;25303;48.896;13.342;2023-02-28T07:51:59;93313.06;;;-1.06;49.29
39613;BME280;25303;48.896;13.342;2023-02-28T07:54:42;93302.31;;;-0.76;49.78
39613;BME280;25303;48.896;13.342;2023-02-28T07:57:25;93306.25;;;-0.70;50.08
39613;BME280;25303;48.896;13.342;2023-02-28T08:00:08;93306.91;;;-0.67;49.52
39613;BME280;25303;48.896;13.342;2023-02-28T08:02:53;93306.31;;;-0.72;49.08
39613;BME280;25303;48.896;13.342;2023-02-28T08:05:37;93310.03;;;-0.46;49.51
39613;BME280;25303;48.896;13.342;2023-02-28T08:08:21;93315.66;;;-0.90;48.13
39613;BME280;25303;48.896;13.342;2023-02-28T08:11:03;93305.66;;;-0.75;48.68
39613;BME280;25303;48.896;13.342;2023-02-28T08:13:46;93304.56;;;-0.38;49.12
39613;BME280;25303;48.896;13.342;2023-02-28T08:16:29;93310.63;;;-0.40;48.10
39613;BME280;25303;48.896;13.342;2023-02-28T08:19:13;93317.16;;;-0.20;48.09
39613;BME280;25303;48.896;13.342;2023-02-28T08:21:56;93309.19;;;0.04;47.73
39613;BME280;25303;48.896;13.342;2023-02-28T08:24:40;93316.19;;;-0.02;47.50
39613;BME280;25303;48.896;13.342;2023-02-28T08:27:23;93309.72;;;0.09;47.89
39613;BME280;25303;48.896;13.342;2023-02-28T08:30:06;93323.72;;;0.00;47.78
39613;BME280;25303;48.896;13.342;2023-02-28T08:32:49;93308.66;;;0.13;47.94
39613;BME280;25303;48.896;13.342;2023-02-28T08:35:33;93315.22;;;0.17;47.47
39613;BME280;25303;48.896;13.342;2023-02-28T08:38:17;93322.31;;;0.10;47.23
39613;BME280;25303;48.896;13.342;2023-02-28T08:41:00;93318.53;;;0.50;47.67
39613;BME280;25303;48.896;13.342;2023-02-28T08:43:43;93315.38;;;0.60;47.33
39613;BME280;25303;48.896;13.342;2023-02-28T08:46:26;93332.34;;;0.74;47.75
39613;BME280;25303;48.896;13.342;2023-02-28T08:49:09;93325.31;;;0.80;47.06
39613;BME280;25303;48.896;13.342;2023-02-28T08:51:54;93323.44;;;0.67;46.75
39613;BME280;25303;48.896;13.342;2023-02-28T08:54:38;93337.09;;;0.81;47.36
39613;BME280;25303;48.896;13.342;2023-02-28T08:57:21;93333.38;;;0.56;46.84
39613;BME280;25303;48.896;13.342;2023-02-28T09:00:04;93327.69;;;0.83;46.79
39613;BME280;25303;48.896;13.342;2023-02-28T09:02:47;93320.25;;;0.80;47.33
39613;BME280;25303;48.896;13.342;2023-02-28T09:05:29;93324.16;;;0.85;47.07
39613;BME280;25303;48.896;13.342;2023-02-28T09:08:13;93327.31;;;0.89;46.69
39613;BME280;25303;48.896;13.342;2023-02-28T09:10:56;93330.66;;;0.59;47.27
39613;BME280;25303;48.896;13.342;2023-02-28T09:13:41;93320.78;;;0.54;47.75
39613;BME280;25303;48.896;13.342;2023-02-28T09:16:24;93331.31;;;0.63;48.09
39613;BME280;25303;48.896;13.342;2023-02-28T09:19:06;93333.47;;;0.54;47.07
39613;BME280;25303;48.896;13.342;2023-02-28T09:21:52;93338.09;;;0.16;47.88
39613;BME280;25303;48.896;13.342;2023-02-28T09:24:36;93332.56;;;0.55;48.66
39613;BME280;25303;48.896;13.342;2023-02-28T09:27:24;93329.59;;;0.63;48.29
39613;BME280;25303;48.896;13.342;2023-02-28T09:30:07;93338.09;;;0.62;48.04
39613;BME280;25303;48.896;13.342;2023-02-28T09:32:50;93343.69;;;1.14;47.82
39613;BME280;25303;48.896;13.342;2023-02-28T09:35:34;93335.41;;;0.65;47.63
39613;BME280;25303;48.896;13.342;2023-02-28T09:38:18;93344.41;;;0.85;48.41
39613;BME280;25303;48.896;13.342;2023-02-28T09:41:03;93347.19;;;1.11;48.11
39613;BME280;25303;48.896;13.342;2023-02-28T09:43:51;93344.47;;;1.14;47.60
39613;BME280;25303;48.896;13.342;2023-02-28T09:46:37;93349.44;;;0.71;47.67
39613;BME280;25303;48.896;13.342;2023-02-28T09:49:22;93352.53;;;0.45;48.08
39613;BME280;25303;48.896;13.342;2023-02-28T09:52:07;93354.94;;;0.63;49.22
39613;BME280;25303;48.896;13.342;2023-02-28T09:54:52;93359.78;;;0.98;49.33
39613;BME280;25303;48.896;13.342;2023-02-28T09:57:37;93357.84;;;0.41;49.12
39613;BME280;25303;48.896;13.342;2023-02-28T10:00:22;93356.75;;;0.45;50.51
39613;BME280;25303;48.896;13.342;2023-02-28T10:03:12;93352.22;;;0.97;49.57
39613;BME280;25303;48.896;13.342;2023-02-28T10:05:59;93363.97;;;1.14;48.99
39613;BME280;25303;48.896;13.342;2023-02-28T10:08:46;93361.63;;;0.95;48.88
39613;BME280;25303;48.896;13.342;2023-02-28T10:11:32;93365.81;;;0.96;49.25
39613;BME280;25303;48.896;13.342;2023-02-28T10:14:17;93376.69;;;1.43;48.25
39613;BME280;25303;48.896;13.342;2023-02-28T10:17:02;93374.31;;;1.25;48.58
39613;BME280;25303;48.896;13.342;2023-02-28T10:19:47;93373.38;;;1.12;49.42
39613;BME280;25303;48.896;13.342;2023-02-28T10:22:34;93381.78;;;1.12;49.44
39613;BME280;25303;48.896;13.342;2023-02-28T10:25:19;93381.28;;;0.91;49.18
39613;BME280;25303;48.896;13.342;2023-02-28T10:28:07;93375.59;;;1.32;49.34
39613;BME280;25303;48.896;13.342;2023-02-28T10:30:53;93377.94;;;0.90;49.43
39613;BME280;25303;48.896;13.342;2023-02-28T10:33:36;93374.50;;;1.36;49.42
39613;BME280;25303;48.896;13.342;2023-02-28T10:36:19;93377.97;;;1.64;49.77
39613;BME280;25303;48.896;13.342;2023-02-28T10:39:03;93378.44;;;1.71;48.80
39613;BME280;25303;48.896;13.342;2023-02-28T10:42:16;93385.44;;;1.82;48.42
39613;BME280;25303;48.896;13.342;2023-02-28T10:45:09;93384.19;;;1.44;49.59
39613;BME280;25303;48.896;13.342;2023-02-28T10:47:55;93377.34;;;1.90;48.04
39613;BME280;25303;48.896;13.342;2023-02-28T10:50:42;93380.31;;;1.39;49.51
39613;BME280;25303;48.896;13.342;2023-02-28T10:53:30;93373.81;;;1.49;48.54
39613;BME280;25303;48.896;13.342;2023-02-28T10:56:22;93381.84;;;1.41;49.17
39613;BME280;25303;48.896;13.342;2023-02-28T11:08:12;93387.13;;;1.96;48.92
39613;BME280;25303;48.896;13.342;2023-02-28T11:10:56;93381.25;;;1.81;48.75
39613;BME280;25303;48.896;13.342;2023-02-28T11:13:40;93378.59;;;1.82;49.66
39613;BME280;25303;48.896;13.342;2023-02-28T11:16:30;93381.03;;;1.84;48.56
39613;BME280;25303;48.896;13.342;2023-02-28T11:19:16;93383.69;;;1.97;48.59
39613;BME280;25303;48.896;13.342;2023-02-28T11:22:02;93388.94;;;2.23;48.11
39613;BME280;25303;48.896;13.342;2023-02-28T11:24:48;93382.38;;;2.33;49.09
39613;BME280;25303;48.896;13.342;2023-02-28T11:30:39;93380.81;;;3.13;48.01
39613;BME280;25303;48.896;13.342;2023-02-28T11:33:23;93380.09;;;3.11;46.99
39613;BME280;25303;48.896;13.342;2023-02-28T11:36:09;93378.56;;;3.08;46.80
39613;BME280;25303;48.896;13.342;2023-02-28T11:38:53;93385.34;;;2.95;46.68
39613;BME280;25303;48.896;13.342;2023-02-28T11:41:45;93382.31;;;3.02;46.95
39613;BME280;25303;48.896;13.342;2023-02-28T11:44:39;93389.59;;;2.54;48.51
39613;BME280;25303;48.896;13.342;2023-02-28T11:47:28;93388.50;;;2.43;47.43
39613;BME280;25303;48.896;13.342;2023-02-28T11:50:16;93385.59;;;3.04;47.75
39613;BME280;25303;48.896;13.342;2023-02-28T11:53:00;93392.03;;;2.55;47.43
39613;BME280;25303;48.896;13.342;2023-02-28T11:55:44;93388.75;;;2.11;48.94
39613;BME280;25303;48.896;13.342;2023-02-28T11:58:33;93387.75;;;2.56;47.61
39613;BME280;25303;48.896;13.342;2023-02-28T12:01:27;93386.41;;;2.50;47.07
39613;BME280;25303;48.896;13.342;2023-02-28T12:04:14;93388.97;;;2.36;48.05
39613;BME280;25303;48.896;13.342;2023-02-28T12:07:00;93386.13;;;2.40;48.19
39613;BME280;25303;48.896;13.342;2023-02-28T12:09:52;93376.63;;;2.44;49.40
39613;BME280;25303;48.896;13.342;2023-02-28T12:12:39;93375.22;;;2.25;49.63
39613;BME280;25303;48.896;13.342;2023-02-28T12:15:31;93373.72;;;2.36;48.38
39613;BME280;25303;48.896;13.342;2023-02-28T12:18:18;93386.81;;;2.57;48.40
39613;BME280;25303;48.896;13.342;2023-02-28T12:21:08;93383.16;;;2.34;49.09
39613;BME280;25303;48.896;13.342;2023-02-28T12:23:56;93380.28;;;2.25;49.57
39613;BME280;25303;48.896;13.342;2023-02-28T12:26:43;93373.19;;;2.45;49.05
39613;BME280;25303;48.896;13.342;2023-02-28T12:29:27;93378.69;;;2.52;49.00
39613;BME280;25303;48.896;13.342;2023-02-28T12:32:12;93368.38;;;2.68;49.36
39613;BME280;25303;48.896;13.342;2023-02-28T12:35:00;93360.53;;;2.98;48.53
39613;BME280;25303;48.896;13.342;2023-02-28T12:37:44;93363.03;;;2.72;46.85
39613;BME280;25303;48.896;13.342;2023-02-28T12:40:32;93354.06;;;2.52;48.33
39613;BME280;25303;48.896;13.342;2023-02-28T12:43:17;93354.59;;;2.85;48.57
39613;BME280;25303;48.896;13.342;2023-02-28T12:46:02;93355.66;;;2.68;48.06
39613;BME280;25303;48.896;13.342;2023-02-28T12:48:52;93356.16;;;3.00;47.65
39613;BME280;25303;48.896;13.342;2023-02-28T12:51:36;93346.41;;;3.33;48.03
39613;BME280;25303;48.896;13.342;2023-02-28T12:54:22;93346.00;;;3.26;47.23
39613;BME280;25303;48.896;13.342;2023-02-28T12:57:07;93359.56;;;3.27;47.02
39613;BME280;25303;48.896;13.342;2023-02-28T12:59:54;93363.88;;;2.86;47.72
39613;BME280;25303;48.896;13.342;2023-02-28T13:02:45;93362.28;;;2.43;47.58
39613;BME280;25303;48.896;13.342;2023-02-28T13:08:51;93361.75;;;2.38;49.45
39613;BME280;25303;48.896;13.342;2023-02-28T13:11:42;93359.81;;;2.69;49.01
39613;BME280;25303;48.896;13.342;2023-02-28T13:14:26;93358.25;;;2.81;48.84
39613;BME280;25303;48.896;13.342;2023-02-28T13:17:12;93351.53;;;2.80;48.57
39613;BME280;25303;48.896;13.342;2023-02-28T13:19:56;93353.66;;;2.46;48.32
39613;BME280;25303;48.896;13.342;2023-02-28T13:22:40;93360.41;;;3.00;48.29
39613;BME280;25303;48.896;13.342;2023-02-28T13:37:54;93369.94;;;3.24;48.32
39613;BME280;25303;48.896;13.342;2023-02-28T13:40:51;93358.25;;;3.21;48.02
39613;BME280;25303;48.896;13.342;2023-02-28T13:46:31;93361.84;;;3.04;48.32
39613;BME280;25303;48.896;13.342;2023-02-28T13:49:18;93359.03;;;3.22;47.58
39613;BME280;25303;48.896;13.342;2023-02-28T13:52:02;93358.25;;;3.21;47.41
39613;BME280;25303;48.896;13.342;2023-02-28T13:55:02;93361.41;;;3.25;47.87
39613;BME280;25303;48.896;13.342;2023-02-28T13:57:57;93366.50;;;3.50;48.44
39613;BME280;25303;48.896;13.342;2023-02-28T14:00:45;93371.00;;;3.60;47.57
39613;BME280;25303;48.896;13.342;2023-02-28T14:03:38;93374.53;;;3.31;46.78
39613;BME280;25303;48.896;13.342;2023-02-28T14:06:25;93378.59;;;3.34;47.86
39613;BME280;25303;48.896;13.342;2023-02-28T14:09:16;93385.72;;;3.29;47.71
39613;BME280;25303;48.896;13.342;2023-02-28T14:15:00;93385.59;;;3.17;47.54
39613;BME280;25303;48.896;13.342;2023-02-28T14:17:42;93386.00;;;3.24;48.01
39613;BME280;25303;48.896;13.342;2023-02-28T14:20:26;93383.94;;;3.03;48.46
39613;BME280;25303;48.896;13.342;2023-02-28T14:23:12;93388.09;;;2.92;48.90
39613;BME280;25303;48.896;13.342;2023-02-28T14:25:59;93385.16;;;2.98;49.00
39613;BME280;25303;48.896;13.342;2023-02-28T14:28:51;93381.66;;;2.86;48.49
39613;BME280;25303;48.896;13.342;2023-02-28T14:31:40;93387.13;;;2.80;48.61
39613;BME280;25303;48.896;13.342;2023-02-28T14:34:30;93384.16;;;2.46;49.42
39613;BME280;25303;48.896;13.342;2023-02-28T14:37:19;93388.22;;;2.06;50.65
39613;BME280;25303;48.896;13.342;2023-02-28T14:40:02;93373.69;;;1.94;50.93
39613;BME280;25303;48.896;13.342;2023-02-28T14:42:47;93376.16;;;2.10;51.38
39613;BME280;25303;48.896;13.342;2023-02-28T14:45:31;93387.47;;;1.75;51.39
39613;BME280;25303;48.896;13.342;2023-02-28T14:48:15;93383.88;;;1.79;52.54
39613;BME280;25303;48.896;13.342;2023-02-28T14:50:59;93389.38;;;2.01;50.69
39613;BME280;25303;48.896;13.342;2023-02-28T14:53:43;93380.88;;;1.73;51.38
39613;BME280;25303;48.896;13.342;2023-02-28T14:56:27;93375.53;;;1.63;51.65
39613;BME280;25303;48.896;13.342;2023-02-28T14:59:23;93376.34;;;1.63;51.17
39613;BME280;25303;48.896;13.342;2023-02-28T15:02:14;93377.75;;;1.39;52.50
39613;BME280;25303;48.896;13.342;2023-02-28T15:04:59;93378.50;;;1.41;52.72